sensor_id;sensor_type;location;lat;lon;timestamp;P1;durP1;ratioP1;P2;durP2;ratioP2
19798;SDS011;10059;59.850;10.454;2022-12-29T00:00:18;5.07;;;2.30;;
19798;SDS011;10059;59.850;10.454;2022-12-29T00:02:45;6.30;;;2.50;;
19798;SDS011;10059;59.850;10.454;2022-12-29T00:05:12;5.37;;;2.43;;
19798;SDS011;10059;59.850;10.454;2022-12-29T00:07:39;4.60;;;2.73;;
19798;SDS011;10059;59.850;10.454;2022-12-29T00:10:06;5.93;;;2.53;;
19798;SDS011;10059;59.850;10.454;2022-12-29T00:12:33;4.87;;;2.40;;
19798;SDS011;10059;59.850;10.454;2022-12-29T00:15:15;4.73;;;2.67;;
19798;SDS011;10059;59.850;10.454;2022-12-29T00:17:59;4.33;;;2.20;;
19798;SDS011;10059;59.850;10.454;2022-12-29T00:20:26;5.03;;;2.23;;
19798;SDS011;10059;59.850;10.454;2022-12-29T00:23:11;5.83;;;2.30;;
19798;SDS011;10059;59.850;10.454;2022-12-29T00:25:55;5.10;;;2.20;;
19798;SDS011;10059;59.850;10.454;2022-12-29T00:28:39;5.43;;;2.40;;
19798;SDS011;10059;59.850;10.454;2022-12-29T00:31:24;4.10;;;2.50;;
19798;SDS011;10059;59.850;10.454;2022-12-29T00:34:10;5.27;;;2.30;;
19798;SDS011;10059;59.850;10.454;2022-12-29T00:36:54;5.07;;;2.20;;
19798;SDS011;10059;59.850;10.454;2022-12-29T00:39:22;4.10;;;2.17;;
19798;SDS011;10059;59.850;10.454;2022-12-29T00:42:06;4.73;;;2.20;;
19798;SDS011;10059;59.850;10.454;2022-12-29T00:44:51;4.73;;;1.93;;
19798;SDS011;10059;59.850;10.454;2022-12-29T00:47:19;5.13;;;2.20;;
19798;SDS011;10059;59.850;10.454;2022-12-29T00:49:46;5.30;;;2.30;;
19798;SDS011;10059;59.850;10.454;2022-12-29T00:52:12;3.77;;;1.90;;
19798;SDS011;10059;59.850;10.454;2022-12-29T00:54:40;5.83;;;2.50;;
19798;SDS011;10059;59.850;10.454;2022-12-29T00:57:09;3.87;;;2.20;;
19798;SDS011;10059;59.850;10.454;2022-12-29T00:59:37;5.67;;;2.77;;
19798;SDS011;10059;59.850;10.454;2022-12-29T01:02:05;4.57;;;2.40;;
19798;SDS011;10059;59.850;10.454;2022-12-29T01:04:34;3.40;;;1.70;;
19798;SDS011;10059;59.850;10.454;2022-12-29T01:07:01;5.17;;;2.00;;
19798;SDS011;10059;59.850;10.454;2022-12-29T01:09:28;3.80;;;2.30;;
19798;SDS011;10059;59.850;10.454;2022-12-29T01:12:12;7.50;;;2.07;;
19798;SDS011;10059;59.850;10.454;2022-12-29T01:14:39;4.27;;;1.50;;
19798;SDS011;10059;59.850;10.454;2022-12-29T01:17:06;3.03;;;1.60;;
19798;SDS011;10059;59.850;10.454;2022-12-29T01:19:34;2.27;;;1.50;;
19798;SDS011;10059;59.850;10.454;2022-12-29T01:22:01;2.27;;;1.33;;
19798;SDS011;10059;59.850;10.454;2022-12-29T01:24:28;4.97;;;1.50;;
19798;SDS011;10059;59.850;10.454;2022-12-29T01:26:55;4.23;;;1.60;;
19798;SDS011;10059;59.850;10.454;2022-12-29T01:29:22;2.10;;;1.43;;
19798;SDS011;10059;59.850;10.454;2022-12-29T01:31:49;4.03;;;1.47;;
19798;SDS011;10059;59.850;10.454;2022-12-29T01:34:16;3.20;;;1.53;;
19798;SDS011;10059;59.850;10.454;2022-12-29T01:36:44;3.67;;;1.67;;
19798;SDS011;10059;59.850;10.454;2022-12-29T01:39:11;4.57;;;1.40;;
19798;SDS011;10059;59.850;10.454;2022-12-29T01:41:38;2.20;;;1.33;;
19798;SDS011;10059;59.850;10.454;2022-12-29T01:47:13;3.47;;;1.67;;
19798;SDS011;10059;59.850;10.454;2022-12-29T01:49:42;3.13;;;1.33;;
19798;SDS011;10059;59.850;10.454;2022-12-29T01:52:10;2.37;;;1.43;;
19798;SDS011;10059;59.850;10.454;2022-12-29T01:54:38;4.60;;;1.80;;
19798;SDS011;10059;59.850;10.454;2022-12-29T01:57:09;4.53;;;1.80;;
19798;SDS011;10059;59.850;10.454;2022-12-29T01:59:40;3.37;;;1.57;;
19798;SDS011;10059;59.850;10.454;2022-12-29T02:02:09;3.13;;;1.47;;
19798;SDS011;10059;59.850;10.454;2022-12-29T02:04:37;3.60;;;1.47;;
19798;SDS011;10059;59.850;10.454;2022-12-29T02:07:11;2.57;;;1.60;;
19798;SDS011;10059;59.850;10.454;2022-12-29T02:09:43;3.20;;;1.40;;
19798;SDS011;10059;59.850;10.454;2022-12-29T02:12:12;2.43;;;1.50;;
19798;SDS011;10059;59.850;10.454;2022-12-29T02:14:40;3.00;;;1.40;;
19798;SDS011;10059;59.850;10.454;2022-12-29T02:17:08;2.97;;;1.40;;
19798;SDS011;10059;59.850;10.454;2022-12-29T02:20:03;3.33;;;1.57;;
19798;SDS011;10059;59.850;10.454;2022-12-29T02:22:47;2.10;;;1.40;;
19798;SDS011;10059;59.850;10.454;2022-12-29T02:25:35;3.43;;;1.37;;
19798;SDS011;10059;59.850;10.454;2022-12-29T02:28:34;2.77;;;1.50;;
19798;SDS011;10059;59.850;10.454;2022-12-29T02:31:27;6.07;;;1.50;;
19798;SDS011;10059;59.850;10.454;2022-12-29T02:34:00;2.10;;;1.30;;
19798;SDS011;10059;59.850;10.454;2022-12-29T02:36:37;2.30;;;1.20;;
19798;SDS011;10059;59.850;10.454;2022-12-29T02:39:12;4.33;;;1.57;;
19798;SDS011;10059;59.850;10.454;2022-12-29T02:41:56;2.50;;;1.57;;
19798;SDS011;10059;59.850;10.454;2022-12-29T02:44:27;3.93;;;1.63;;
19798;SDS011;10059;59.850;10.454;2022-12-29T02:47:04;2.40;;;1.30;;
19798;SDS011;10059;59.850;10.454;2022-12-29T02:49:37;3.50;;;1.30;;
19798;SDS011;10059;59.850;10.454;2022-12-29T02:52:12;2.07;;;1.10;;
19798;SDS011;10059;59.850;10.454;2022-12-29T02:54:42;3.57;;;1.40;;
19798;SDS011;10059;59.850;10.454;2022-12-29T02:57:10;1.60;;;1.30;;
19798;SDS011;10059;59.850;10.454;2022-12-29T02:59:38;2.57;;;1.20;;
19798;SDS011;10059;59.850;10.454;2022-12-29T03:02:21;2.87;;;1.40;;
19798;SDS011;10059;59.850;10.454;2022-12-29T03:05:08;1.30;;;1.00;;
19798;SDS011;10059;59.850;10.454;2022-12-29T03:07:47;3.23;;;1.30;;
19798;SDS011;10059;59.850;10.454;2022-12-29T03:10:25;3.50;;;1.23;;
19798;SDS011;10059;59.850;10.454;2022-12-29T03:13:01;3.03;;;1.20;;
19798;SDS011;10059;59.850;10.454;2022-12-29T03:15:50;1.67;;;1.10;;
19798;SDS011;10059;59.850;10.454;2022-12-29T03:18:39;1.50;;;1.23;;
19798;SDS011;10059;59.850;10.454;2022-12-29T03:21:12;2.33;;;1.17;;
19798;SDS011;10059;59.850;10.454;2022-12-29T03:23:42;2.10;;;1.33;;
19798;SDS011;10059;59.850;10.454;2022-12-29T03:26:12;4.30;;;1.40;;
19798;SDS011;10059;59.850;10.454;2022-12-29T03:28:43;3.03;;;1.50;;
19798;SDS011;10059;59.850;10.454;2022-12-29T03:31:13;2.20;;;1.20;;
19798;SDS011;10059;59.850;10.454;2022-12-29T03:33:42;1.87;;;1.20;;
19798;SDS011;10059;59.850;10.454;2022-12-29T03:36:18;5.60;;;1.47;;
19798;SDS011;10059;59.850;10.454;2022-12-29T03:38:53;3.33;;;1.23;;
19798;SDS011;10059;59.850;10.454;2022-12-29T03:41:26;1.80;;;1.10;;
19798;SDS011;10059;59.850;10.454;2022-12-29T03:43:57;2.30;;;1.10;;
19798;SDS011;10059;59.850;10.454;2022-12-29T03:46:24;2.10;;;1.23;;
19798;SDS011;10059;59.850;10.454;2022-12-29T03:48:52;1.87;;;1.20;;
19798;SDS011;10059;59.850;10.454;2022-12-29T03:51:19;2.40;;;1.20;;
19798;SDS011;10059;59.850;10.454;2022-12-29T03:53:46;2.40;;;1.50;;
19798;SDS011;10059;59.850;10.454;2022-12-29T03:56:13;1.37;;;1.00;;
19798;SDS011;10059;59.850;10.454;2022-12-29T03:58:39;1.50;;;1.07;;
19798;SDS011;10059;59.850;10.454;2022-12-29T04:01:06;1.87;;;1.00;;
19798;SDS011;10059;59.850;10.454;2022-12-29T04:03:33;2.07;;;1.30;;
19798;SDS011;10059;59.850;10.454;2022-12-29T04:06:01;5.50;;;1.20;;
19798;SDS011;10059;59.850;10.454;2022-12-29T04:08:28;2.50;;;1.33;;
19798;SDS011;10059;59.850;10.454;2022-12-29T04:10:55;2.83;;;1.20;;
19798;SDS011;10059;59.850;10.454;2022-12-29T04:13:22;1.80;;;1.10;;
19798;SDS011;10059;59.850;10.454;2022-12-29T04:15:49;1.57;;;0.90;;
19798;SDS011;10059;59.850;10.454;2022-12-29T04:18:15;3.43;;;1.40;;
19798;SDS011;10059;59.850;10.454;2022-12-29T04:20:43;1.97;;;1.10;;
19798;SDS011;10059;59.850;10.454;2022-12-29T04:23:27;3.27;;;1.07;;
19798;SDS011;10059;59.850;10.454;2022-12-29T04:25:54;3.10;;;1.00;;
19798;SDS011;10059;59.850;10.454;2022-12-29T04:28:21;1.30;;;0.93;;
19798;SDS011;10059;59.850;10.454;2022-12-29T04:30:48;1.20;;;0.90;;
19798;SDS011;10059;59.850;10.454;2022-12-29T04:33:15;2.57;;;1.10;;
19798;SDS011;10059;59.850;10.454;2022-12-29T04:35:42;1.70;;;1.10;;
19798;SDS011;10059;59.850;10.454;2022-12-29T04:38:09;2.10;;;0.97;;
19798;SDS011;10059;59.850;10.454;2022-12-29T04:40:38;3.00;;;0.93;;
19798;SDS011;10059;59.850;10.454;2022-12-29T04:43:06;1.43;;;0.90;;
19798;SDS011;10059;59.850;10.454;2022-12-29T04:45:33;2.00;;;1.30;;
19798;SDS011;10059;59.850;10.454;2022-12-29T04:48:00;1.90;;;1.30;;
19798;SDS011;10059;59.850;10.454;2022-12-29T04:50:27;1.70;;;1.10;;
19798;SDS011;10059;59.850;10.454;2022-12-29T04:52:54;3.00;;;1.10;;
19798;SDS011;10059;59.850;10.454;2022-12-29T04:55:21;1.93;;;0.87;;
19798;SDS011;10059;59.850;10.454;2022-12-29T04:57:49;1.20;;;0.80;;
19798;SDS011;10059;59.850;10.454;2022-12-29T05:00:16;3.67;;;1.20;;
19798;SDS011;10059;59.850;10.454;2022-12-29T05:02:43;0.93;;;0.83;;
19798;SDS011;10059;59.850;10.454;2022-12-29T05:05:09;1.37;;;0.90;;
19798;SDS011;10059;59.850;10.454;2022-12-29T05:07:37;1.13;;;1.00;;
19798;SDS011;10059;59.850;10.454;2022-12-29T05:10:04;2.67;;;1.10;;
19798;SDS011;10059;59.850;10.454;2022-12-29T05:12:32;0.87;;;0.73;;
19798;SDS011;10059;59.850;10.454;2022-12-29T05:15:01;2.63;;;1.00;;
19798;SDS011;10059;59.850;10.454;2022-12-29T05:17:29;2.27;;;0.90;;
19798;SDS011;10059;59.850;10.454;2022-12-29T05:19:56;1.93;;;0.90;;
19798;SDS011;10059;59.850;10.454;2022-12-29T05:22:23;1.37;;;0.80;;
19798;SDS011;10059;59.850;10.454;2022-12-29T05:24:50;1.47;;;0.90;;
19798;SDS011;10059;59.850;10.454;2022-12-29T05:27:17;2.57;;;0.90;;
19798;SDS011;10059;59.850;10.454;2022-12-29T05:29:43;2.77;;;0.80;;
19798;SDS011;10059;59.850;10.454;2022-12-29T05:32:12;1.70;;;1.10;;
19798;SDS011;10059;59.850;10.454;2022-12-29T05:34:38;2.50;;;0.93;;
19798;SDS011;10059;59.850;10.454;2022-12-29T05:37:05;1.67;;;1.00;;
19798;SDS011;10059;59.850;10.454;2022-12-29T05:39:32;1.30;;;1.00;;
19798;SDS011;10059;59.850;10.454;2022-12-29T05:41:59;1.37;;;0.80;;
19798;SDS011;10059;59.850;10.454;2022-12-29T05:44:26;2.50;;;1.00;;
19798;SDS011;10059;59.850;10.454;2022-12-29T05:46:53;2.37;;;0.90;;
19798;SDS011;10059;59.850;10.454;2022-12-29T05:49:21;1.20;;;0.83;;
19798;SDS011;10059;59.850;10.454;2022-12-29T05:51:48;1.83;;;1.00;;
19798;SDS011;10059;59.850;10.454;2022-12-29T05:54:14;2.30;;;0.90;;
19798;SDS011;10059;59.850;10.454;2022-12-29T05:56:41;7.40;;;3.27;;
19798;SDS011;10059;59.850;10.454;2022-12-29T05:59:08;8.23;;;3.60;;
19798;SDS011;10059;59.850;10.454;2022-12-29T06:01:35;5.17;;;2.60;;
19798;SDS011;10059;59.850;10.454;2022-12-29T06:04:02;2.67;;;1.67;;
19798;SDS011;10059;59.850;10.454;2022-12-29T06:06:30;4.63;;;2.53;;
19798;SDS011;10059;59.850;10.454;2022-12-29T06:08:57;2.53;;;1.40;;
19798;SDS011;10059;59.850;10.454;2022-12-29T06:11:24;2.57;;;1.70;;
19798;SDS011;10059;59.850;10.454;2022-12-29T06:13:51;3.30;;;1.83;;
19798;SDS011;10059;59.850;10.454;2022-12-29T06:16:17;3.07;;;1.80;;
19798;SDS011;10059;59.850;10.454;2022-12-29T06:18:44;2.97;;;2.20;;
19798;SDS011;10059;59.850;10.454;2022-12-29T06:21:11;3.20;;;2.00;;
19798;SDS011;10059;59.850;10.454;2022-12-29T06:23:39;3.87;;;2.10;;
19798;SDS011;10059;59.850;10.454;2022-12-29T06:26:06;4.87;;;2.60;;
19798;SDS011;10059;59.850;10.454;2022-12-29T06:28:33;5.10;;;2.77;;
19798;SDS011;10059;59.850;10.454;2022-12-29T06:31:00;4.73;;;2.70;;
19798;SDS011;10059;59.850;10.454;2022-12-29T06:33:28;2.60;;;1.90;;
19798;SDS011;10059;59.850;10.454;2022-12-29T06:35:54;3.20;;;2.03;;
19798;SDS011;10059;59.850;10.454;2022-12-29T06:38:21;2.80;;;1.60;;
19798;SDS011;10059;59.850;10.454;2022-12-29T06:40:49;3.27;;;1.60;;
19798;SDS011;10059;59.850;10.454;2022-12-29T06:43:16;1.73;;;1.40;;
19798;SDS011;10059;59.850;10.454;2022-12-29T06:45:43;3.33;;;1.10;;
19798;SDS011;10059;59.850;10.454;2022-12-29T06:48:10;1.77;;;1.20;;
19798;SDS011;10059;59.850;10.454;2022-12-29T06:50:37;10.17;;;5.10;;
19798;SDS011;10059;59.850;10.454;2022-12-29T06:53:03;6.70;;;2.87;;
19798;SDS011;10059;59.850;10.454;2022-12-29T06:55:30;10.50;;;4.57;;
19798;SDS011;10059;59.850;10.454;2022-12-29T06:57:59;16.20;;;7.90;;
19798;SDS011;10059;59.850;10.454;2022-12-29T07:00:26;12.90;;;6.90;;
19798;SDS011;10059;59.850;10.454;2022-12-29T07:02:54;10.73;;;6.20;;
19798;SDS011;10059;59.850;10.454;2022-12-29T07:05:21;21.47;;;10.23;;
19798;SDS011;10059;59.850;10.454;2022-12-29T07:07:48;15.90;;;8.00;;
19798;SDS011;10059;59.850;10.454;2022-12-29T07:10:15;17.33;;;7.37;;
19798;SDS011;10059;59.850;10.454;2022-12-29T07:12:42;10.00;;;4.10;;
19798;SDS011;10059;59.850;10.454;2022-12-29T07:15:10;8.53;;;4.87;;
19798;SDS011;10059;59.850;10.454;2022-12-29T07:17:37;5.07;;;3.13;;
19798;SDS011;10059;59.850;10.454;2022-12-29T07:20:05;7.43;;;4.37;;
19798;SDS011;10059;59.850;10.454;2022-12-29T07:22:33;11.43;;;7.13;;
19798;SDS011;10059;59.850;10.454;2022-12-29T07:24:59;9.00;;;5.50;;
19798;SDS011;10059;59.850;10.454;2022-12-29T07:27:27;7.17;;;5.03;;
19798;SDS011;10059;59.850;10.454;2022-12-29T07:29:54;5.77;;;4.27;;
19798;SDS011;10059;59.850;10.454;2022-12-29T07:32:22;10.00;;;7.50;;
19798;SDS011;10059;59.850;10.454;2022-12-29T07:34:49;16.03;;;8.60;;
19798;SDS011;10059;59.850;10.454;2022-12-29T07:37:16;19.97;;;12.97;;
19798;SDS011;10059;59.850;10.454;2022-12-29T07:39:43;7.13;;;4.00;;
19798;SDS011;10059;59.850;10.454;2022-12-29T07:42:10;10.17;;;6.37;;
19798;SDS011;10059;59.850;10.454;2022-12-29T07:44:37;9.37;;;5.83;;
19798;SDS011;10059;59.850;10.454;2022-12-29T07:47:03;6.17;;;3.70;;
19798;SDS011;10059;59.850;10.454;2022-12-29T07:49:32;7.57;;;4.73;;
19798;SDS011;10059;59.850;10.454;2022-12-29T07:51:58;5.70;;;3.10;;
19798;SDS011;10059;59.850;10.454;2022-12-29T07:54:25;3.20;;;2.00;;
19798;SDS011;10059;59.850;10.454;2022-12-29T07:56:52;5.00;;;2.97;;
19798;SDS011;10059;59.850;10.454;2022-12-29T07:59:19;4.23;;;3.00;;
19798;SDS011;10059;59.850;10.454;2022-12-29T08:01:47;5.80;;;3.90;;
19798;SDS011;10059;59.850;10.454;2022-12-29T08:04:14;2.50;;;1.80;;
19798;SDS011;10059;59.850;10.454;2022-12-29T08:06:42;2.53;;;2.33;;
19798;SDS011;10059;59.850;10.454;2022-12-29T08:09:10;4.70;;;2.90;;
19798;SDS011;10059;59.850;10.454;2022-12-29T08:11:40;2.60;;;2.13;;
19798;SDS011;10059;59.850;10.454;2022-12-29T08:14:07;8.83;;;3.97;;
19798;SDS011;10059;59.850;10.454;2022-12-29T08:16:35;6.47;;;3.40;;
19798;SDS011;10059;59.850;10.454;2022-12-29T08:19:01;5.83;;;2.70;;
19798;SDS011;10059;59.850;10.454;2022-12-29T08:21:28;4.57;;;2.87;;
19798;SDS011;10059;59.850;10.454;2022-12-29T08:23:56;4.83;;;2.93;;
19798;SDS011;10059;59.850;10.454;2022-12-29T08:26:24;2.70;;;2.10;;
19798;SDS011;10059;59.850;10.454;2022-12-29T08:28:51;5.50;;;3.90;;
19798;SDS011;10059;59.850;10.454;2022-12-29T08:31:19;6.87;;;3.57;;
19798;SDS011;10059;59.850;10.454;2022-12-29T08:33:46;8.70;;;5.77;;
19798;SDS011;10059;59.850;10.454;2022-12-29T08:36:13;5.00;;;3.47;;
19798;SDS011;10059;59.850;10.454;2022-12-29T08:38:39;5.13;;;3.17;;
19798;SDS011;10059;59.850;10.454;2022-12-29T08:41:08;4.67;;;2.80;;
19798;SDS011;10059;59.850;10.454;2022-12-29T08:43:35;4.20;;;2.70;;
19798;SDS011;10059;59.850;10.454;2022-12-29T08:46:01;9.07;;;5.07;;
19798;SDS011;10059;59.850;10.454;2022-12-29T08:48:29;49.80;;;21.27;;
19798;SDS011;10059;59.850;10.454;2022-12-29T08:50:55;50.83;;;20.57;;
19798;SDS011;10059;59.850;10.454;2022-12-29T08:53:22;9.60;;;5.33;;
19798;SDS011;10059;59.850;10.454;2022-12-29T08:55:54;5.03;;;3.57;;
19798;SDS011;10059;59.850;10.454;2022-12-29T08:58:24;9.60;;;4.70;;
19798;SDS011;10059;59.850;10.454;2022-12-29T09:00:52;15.57;;;7.77;;
19798;SDS011;10059;59.850;10.454;2022-12-29T09:03:19;16.47;;;8.07;;
19798;SDS011;10059;59.850;10.454;2022-12-29T09:05:47;23.63;;;10.97;;
19798;SDS011;10059;59.850;10.454;2022-12-29T09:08:15;28.50;;;10.93;;
19798;SDS011;10059;59.850;10.454;2022-12-29T09:10:42;19.27;;;10.27;;
19798;SDS011;10059;59.850;10.454;2022-12-29T09:13:09;9.30;;;5.50;;
19798;SDS011;10059;59.850;10.454;2022-12-29T09:15:37;22.87;;;14.73;;
19798;SDS011;10059;59.850;10.454;2022-12-29T09:18:05;11.30;;;7.30;;
19798;SDS011;10059;59.850;10.454;2022-12-29T09:20:32;11.93;;;6.77;;
19798;SDS011;10059;59.850;10.454;2022-12-29T09:22:59;9.37;;;5.63;;
19798;SDS011;10059;59.850;10.454;2022-12-29T09:25:26;13.63;;;7.50;;
19798;SDS011;10059;59.850;10.454;2022-12-29T09:27:53;7.37;;;4.70;;
19798;SDS011;10059;59.850;10.454;2022-12-29T09:30:21;13.90;;;7.13;;
19798;SDS011;10059;59.850;10.454;2022-12-29T09:32:50;18.80;;;9.27;;
19798;SDS011;10059;59.850;10.454;2022-12-29T09:35:17;26.17;;;16.97;;
19798;SDS011;10059;59.850;10.454;2022-12-29T09:37:44;10.97;;;6.60;;
19798;SDS011;10059;59.850;10.454;2022-12-29T09:40:16;12.60;;;7.70;;
19798;SDS011;10059;59.850;10.454;2022-12-29T09:42:58;9.13;;;4.77;;
19798;SDS011;10059;59.850;10.454;2022-12-29T09:45:49;14.47;;;9.20;;
19798;SDS011;10059;59.850;10.454;2022-12-29T09:48:23;13.13;;;7.60;;
19798;SDS011;10059;59.850;10.454;2022-12-29T09:50:56;6.60;;;4.13;;
19798;SDS011;10059;59.850;10.454;2022-12-29T09:53:27;22.90;;;12.77;;
19798;SDS011;10059;59.850;10.454;2022-12-29T09:56:00;7.70;;;4.67;;
19798;SDS011;10059;59.850;10.454;2022-12-29T09:58:29;6.37;;;3.60;;
19798;SDS011;10059;59.850;10.454;2022-12-29T10:01:04;9.63;;;4.40;;
19798;SDS011;10059;59.850;10.454;2022-12-29T10:03:35;67.43;;;30.10;;
19798;SDS011;10059;59.850;10.454;2022-12-29T10:06:11;24.90;;;11.90;;
19798;SDS011;10059;59.850;10.454;2022-12-29T10:08:41;54.67;;;26.80;;
19798;SDS011;10059;59.850;10.454;2022-12-29T10:11:19;16.87;;;9.07;;
19798;SDS011;10059;59.850;10.454;2022-12-29T10:14:03;46.83;;;21.10;;
19798;SDS011;10059;59.850;10.454;2022-12-29T10:16:41;20.00;;;10.80;;
19798;SDS011;10059;59.850;10.454;2022-12-29T10:19:23;14.90;;;7.70;;
19798;SDS011;10059;59.850;10.454;2022-12-29T10:21:59;25.40;;;12.13;;
19798;SDS011;10059;59.850;10.454;2022-12-29T10:24:39;21.30;;;10.53;;
19798;SDS011;10059;59.850;10.454;2022-12-29T10:27:09;36.80;;;19.50;;
19798;SDS011;10059;59.850;10.454;2022-12-29T10:29:39;32.63;;;16.80;;
19798;SDS011;10059;59.850;10.454;2022-12-29T10:32:13;29.20;;;15.77;;
19798;SDS011;10059;59.850;10.454;2022-12-29T10:34:51;14.27;;;7.90;;
19798;SDS011;10059;59.850;10.454;2022-12-29T10:37:24;15.63;;;6.80;;
19798;SDS011;10059;59.850;10.454;2022-12-29T10:39:57;11.80;;;6.73;;
19798;SDS011;10059;59.850;10.454;2022-12-29T10:42:26;13.13;;;7.60;;
19798;SDS011;10059;59.850;10.454;2022-12-29T10:44:53;14.73;;;8.10;;
19798;SDS011;10059;59.850;10.454;2022-12-29T10:47:22;7.17;;;4.07;;
19798;SDS011;10059;59.850;10.454;2022-12-29T10:49:52;5.93;;;3.60;;
19798;SDS011;10059;59.850;10.454;2022-12-29T10:52:20;6.47;;;3.60;;
19798;SDS011;10059;59.850;10.454;2022-12-29T10:54:50;7.73;;;3.60;;
19798;SDS011;10059;59.850;10.454;2022-12-29T10:57:23;8.40;;;5.20;;
19798;SDS011;10059;59.850;10.454;2022-12-29T10:59:53;6.57;;;4.00;;
19798;SDS011;10059;59.850;10.454;2022-12-29T11:05:15;5.50;;;2.13;;
19798;SDS011;10059;59.850;10.454;2022-12-29T11:07:49;6.17;;;2.80;;
19798;SDS011;10059;59.850;10.454;2022-12-29T11:10:20;6.77;;;3.90;;
19798;SDS011;10059;59.850;10.454;2022-12-29T11:12:56;7.77;;;4.53;;
19798;SDS011;10059;59.850;10.454;2022-12-29T11:15:24;6.43;;;3.70;;
19798;SDS011;10059;59.850;10.454;2022-12-29T11:17:52;6.33;;;3.30;;
19798;SDS011;10059;59.850;10.454;2022-12-29T11:20:28;6.47;;;4.23;;
19798;SDS011;10059;59.850;10.454;2022-12-29T11:22:58;6.57;;;4.50;;
19798;SDS011;10059;59.850;10.454;2022-12-29T11:25:25;5.80;;;3.00;;
19798;SDS011;10059;59.850;10.454;2022-12-29T11:27:56;8.90;;;4.37;;
19798;SDS011;10059;59.850;10.454;2022-12-29T11:30:26;16.70;;;7.10;;
19798;SDS011;10059;59.850;10.454;2022-12-29T11:32:54;45.80;;;16.53;;
19798;SDS011;10059;59.850;10.454;2022-12-29T11:35:33;54.57;;;19.57;;
19798;SDS011;10059;59.850;10.454;2022-12-29T11:38:02;63.43;;;22.80;;
19798;SDS011;10059;59.850;10.454;2022-12-29T11:40:30;63.27;;;25.57;;
19798;SDS011;10059;59.850;10.454;2022-12-29T11:43:00;87.00;;;27.37;;
19798;SDS011;10059;59.850;10.454;2022-12-29T11:45:29;56.63;;;19.23;;
19798;SDS011;10059;59.850;10.454;2022-12-29T11:47:58;46.87;;;14.30;;
19798;SDS011;10059;59.850;10.454;2022-12-29T11:50:28;29.30;;;12.20;;
19798;SDS011;10059;59.850;10.454;2022-12-29T11:52:59;7.13;;;3.50;;
19798;SDS011;10059;59.850;10.454;2022-12-29T11:55:29;8.20;;;4.10;;
19798;SDS011;10059;59.850;10.454;2022-12-29T11:57:57;7.43;;;3.67;;
19798;SDS011;10059;59.850;10.454;2022-12-29T12:00:28;10.60;;;4.97;;
19798;SDS011;10059;59.850;10.454;2022-12-29T12:02:58;5.87;;;4.20;;
19798;SDS011;10059;59.850;10.454;2022-12-29T12:05:29;10.30;;;5.63;;
19798;SDS011;10059;59.850;10.454;2022-12-29T12:08:05;12.27;;;6.83;;
19798;SDS011;10059;59.850;10.454;2022-12-29T12:10:38;8.57;;;5.10;;
19798;SDS011;10059;59.850;10.454;2022-12-29T12:13:20;5.60;;;3.40;;
19798;SDS011;10059;59.850;10.454;2022-12-29T12:15:52;5.73;;;4.07;;
19798;SDS011;10059;59.850;10.454;2022-12-29T12:18:27;5.10;;;3.50;;
19798;SDS011;10059;59.850;10.454;2022-12-29T12:21:04;5.10;;;3.40;;
19798;SDS011;10059;59.850;10.454;2022-12-29T12:23:38;6.33;;;4.20;;
19798;SDS011;10059;59.850;10.454;2022-12-29T12:26:11;5.63;;;3.50;;
19798;SDS011;10059;59.850;10.454;2022-12-29T12:28:42;4.33;;;3.00;;
19798;SDS011;10059;59.850;10.454;2022-12-29T12:31:17;8.03;;;3.00;;
19798;SDS011;10059;59.850;10.454;2022-12-29T12:33:50;4.10;;;2.37;;
19798;SDS011;10059;59.850;10.454;2022-12-29T12:36:30;4.37;;;2.50;;
19798;SDS011;10059;59.850;10.454;2022-12-29T12:39:24;6.27;;;2.00;;
19798;SDS011;10059;59.850;10.454;2022-12-29T12:41:56;5.07;;;2.10;;
19798;SDS011;10059;59.850;10.454;2022-12-29T12:44:35;6.57;;;3.93;;
19798;SDS011;10059;59.850;10.454;2022-12-29T12:47:14;6.93;;;4.27;;
19798;SDS011;10059;59.850;10.454;2022-12-29T12:52:48;7.50;;;3.10;;
19798;SDS011;10059;59.850;10.454;2022-12-29T12:55:39;6.07;;;2.93;;
19798;SDS011;10059;59.850;10.454;2022-12-29T12:58:17;8.23;;;3.70;;
19798;SDS011;10059;59.850;10.454;2022-12-29T13:00:54;8.80;;;4.50;;
19798;SDS011;10059;59.850;10.454;2022-12-29T13:03:38;13.50;;;4.97;;
19798;SDS011;10059;59.850;10.454;2022-12-29T13:06:16;7.30;;;3.30;;
19798;SDS011;10059;59.850;10.454;2022-12-29T13:09:01;12.70;;;3.93;;
19798;SDS011;10059;59.850;10.454;2022-12-29T13:11:51;21.13;;;8.20;;
19798;SDS011;10059;59.850;10.454;2022-12-29T13:14:30;17.43;;;6.47;;
19798;SDS011;10059;59.850;10.454;2022-12-29T13:17:08;171.97;;;19.87;;
19798;SDS011;10059;59.850;10.454;2022-12-29T13:19:43;131.60;;;23.03;;
19798;SDS011;10059;59.850;10.454;2022-12-29T13:22:17;298.53;;;30.03;;
19798;SDS011;10059;59.850;10.454;2022-12-29T13:24:55;158.50;;;26.30;;
19798;SDS011;10059;59.850;10.454;2022-12-29T13:27:37;269.10;;;27.57;;
19798;SDS011;10059;59.850;10.454;2022-12-29T13:30:10;306.40;;;26.33;;
19798;SDS011;10059;59.850;10.454;2022-12-29T13:32:47;335.63;;;28.53;;
19798;SDS011;10059;59.850;10.454;2022-12-29T13:35:34;158.40;;;21.80;;
19798;SDS011;10059;59.850;10.454;2022-12-29T13:38:10;89.87;;;19.63;;
19798;SDS011;10059;59.850;10.454;2022-12-29T13:40:42;52.03;;;18.73;;
19798;SDS011;10059;59.850;10.454;2022-12-29T13:43:13;103.40;;;21.33;;
19798;SDS011;10059;59.850;10.454;2022-12-29T13:45:42;112.93;;;18.67;;
19798;SDS011;10059;59.850;10.454;2022-12-29T13:48:13;89.90;;;20.10;;
19798;SDS011;10059;59.850;10.454;2022-12-29T13:50:43;53.13;;;17.73;;
19798;SDS011;10059;59.850;10.454;2022-12-29T13:53:19;66.37;;;20.83;;
19798;SDS011;10059;59.850;10.454;2022-12-29T13:55:54;158.73;;;22.87;;
19798;SDS011;10059;59.850;10.454;2022-12-29T13:58:26;131.43;;;21.23;;
19798;SDS011;10059;59.850;10.454;2022-12-29T14:00:59;88.30;;;20.33;;
19798;SDS011;10059;59.850;10.454;2022-12-29T14:03:44;47.70;;;17.20;;
19798;SDS011;10059;59.850;10.454;2022-12-29T14:06:15;50.83;;;18.87;;
19798;SDS011;10059;59.850;10.454;2022-12-29T14:08:46;37.37;;;18.13;;
19798;SDS011;10059;59.850;10.454;2022-12-29T14:11:14;35.47;;;15.57;;
19798;SDS011;10059;59.850;10.454;2022-12-29T14:13:45;30.47;;;12.97;;
19798;SDS011;10059;59.850;10.454;2022-12-29T14:16:22;34.60;;;14.67;;
19798;SDS011;10059;59.850;10.454;2022-12-29T14:18:56;31.07;;;14.13;;
19798;SDS011;10059;59.850;10.454;2022-12-29T14:21:30;30.23;;;13.73;;
19798;SDS011;10059;59.850;10.454;2022-12-29T14:26:53;35.20;;;15.67;;
19798;SDS011;10059;59.850;10.454;2022-12-29T14:38:14;28.70;;;14.27;;
19798;SDS011;10059;59.850;10.454;2022-12-29T14:40:42;28.07;;;13.90;;
19798;SDS011;10059;59.850;10.454;2022-12-29T14:43:12;48.63;;;22.37;;
19798;SDS011;10059;59.850;10.454;2022-12-29T14:45:48;40.30;;;17.27;;
19798;SDS011;10059;59.850;10.454;2022-12-29T14:48:31;33.97;;;15.37;;
19798;SDS011;10059;59.850;10.454;2022-12-29T14:51:03;44.57;;;18.03;;
19798;SDS011;10059;59.850;10.454;2022-12-29T14:53:45;37.73;;;17.07;;
19798;SDS011;10059;59.850;10.454;2022-12-29T14:56:14;107.17;;;22.73;;
19798;SDS011;10059;59.850;10.454;2022-12-29T14:58:44;164.30;;;27.53;;
19798;SDS011;10059;59.850;10.454;2022-12-29T15:01:18;197.33;;;29.77;;
19798;SDS011;10059;59.850;10.454;2022-12-29T15:03:51;198.87;;;30.70;;
19798;SDS011;10059;59.850;10.454;2022-12-29T15:06:20;252.03;;;31.27;;
19798;SDS011;10059;59.850;10.454;2022-12-29T15:08:50;112.60;;;32.85;;
19798;SDS011;10059;59.850;10.454;2022-12-29T15:11:21;127.93;;;24.17;;